createdAt,value
2022-08-19T00:01:52.683Z,18.30
2022-08-19T00:04:28.718Z,18.30
2022-08-19T00:07:10.971Z,18.40
2022-08-19T00:09:42.920Z,18.40
2022-08-19T00:12:13.556Z,18.40
2022-08-19T00:14:45.797Z,18.40
2022-08-19T00:17:24.938Z,18.50
2022-08-19T00:19:55.034Z,18.50
2022-08-19T00:22:39.024Z,18.60
2022-08-19T00:25:30.990Z,18.60
2022-08-19T00:28:07.797Z,18.60
2022-08-19T00:30:42.913Z,18.60
2022-08-19T00:33:15.755Z,18.60
2022-08-19T00:35:46.091Z,18.60
2022-08-19T00:38:37.551Z,18.60
2022-08-19T00:41:20.454Z,18.60
2022-08-19T00:44:02.671Z,18.50
2022-08-19T00:46:36.270Z,18.50
2022-08-19T00:49:16.107Z,18.50
2022-08-19T00:51:55.012Z,18.50
2022-08-19T00:54:31.182Z,18.50
2022-08-19T00:57:24.386Z,18.50
2022-08-19T01:00:02.422Z,18.40
2022-08-19T01:02:34.789Z,18.50
2022-08-19T01:08:03.388Z,18.50
2022-08-19T01:10:51.216Z,18.50
2022-08-19T01:13:25.479Z,18.50
2022-08-19T01:16:00.932Z,18.50
2022-08-19T01:18:34.430Z,18.50
2022-08-19T01:21:11.201Z,18.50
2022-08-19T01:24:13.243Z,18.50
2022-08-19T01:26:47.685Z,18.40
2022-08-19T01:29:20.112Z,18.40
2022-08-19T01:31:56.088Z,18.40
2022-08-19T01:34:33.389Z,18.40
2022-08-19T01:37:14.321Z,18.40
2022-08-19T01:40:24.473Z,18.50
2022-08-19T01:42:55.540Z,18.50
2022-08-19T01:45:36.000Z,18.60
2022-08-19T01:48:10.742Z,18.50
2022-08-19T01:50:51.275Z,18.40
2022-08-19T01:53:21.207Z,18.40
2022-08-19T01:55:52.630Z,18.50
2022-08-19T01:58:29.274Z,18.50
2022-08-19T02:00:57.510Z,18.50
2022-08-19T02:03:27.465Z,18.60
2022-08-19T02:06:07.199Z,18.60
2022-08-19T02:08:44.585Z,18.60
2022-08-19T02:11:45.324Z,18.70
2022-08-19T02:14:14.361Z,18.70
2022-08-19T02:16:46.286Z,18.70
2022-08-19T02:19:17.136Z,18.60
2022-08-19T02:22:02.762Z,18.60
2022-08-19T02:24:37.969Z,18.60
2022-08-19T02:27:09.705Z,18.60
2022-08-19T02:29:40.822Z,18.60
2022-08-19T02:32:11.625Z,18.50
2022-08-19T02:34:40.460Z,18.60
2022-08-19T02:37:31.165Z,18.50
2022-08-19T02:40:03.261Z,18.60
2022-08-19T02:42:44.393Z,18.50
2022-08-19T02:45:15.153Z,18.50
2022-08-19T02:47:44.801Z,18.50
2022-08-19T02:50:13.938Z,18.40
2022-08-19T02:52:42.580Z,18.40
2022-08-19T02:55:11.981Z,18.40
2022-08-19T02:57:42.563Z,18.50
2022-08-19T03:00:13.794Z,18.50
2022-08-19T03:02:47.164Z,18.50
2022-08-19T03:05:17.748Z,18.40
2022-08-19T03:07:59.811Z,18.40
2022-08-19T03:10:30.809Z,18.50
2022-08-19T03:13:04.719Z,18.40
2022-08-19T03:15:35.670Z,18.40
2022-08-19T03:18:06.764Z,18.50
2022-08-19T03:20:46.133Z,18.40
2022-08-19T03:23:21.052Z,18.50
2022-08-19T03:25:58.316Z,18.50
2022-08-19T03:28:51.708Z,18.50
2022-08-19T03:31:45.626Z,18.50
2022-08-19T03:34:21.859Z,18.50
2022-08-19T03:36:52.945Z,18.50
2022-08-19T03:39:23.093Z,18.40
2022-08-19T03:42:29.207Z,18.40
2022-08-19T03:44:48.705Z,18.50
2022-08-19T03:47:27.010Z,18.50
2022-08-19T03:49:57.999Z,18.50
2022-08-19T03:52:31.580Z,18.50
2022-08-19T03:55:02.165Z,18.50
2022-08-19T03:57:32.470Z,18.50
2022-08-19T04:00:13.717Z,18.60
2022-08-19T04:02:58.812Z,18.50
2022-08-19T04:05:45.913Z,18.60
2022-08-19T04:08:23.675Z,18.60
2022-08-19T04:10:53.872Z,18.60
2022-08-19T04:13:25.717Z,18.60
2022-08-19T04:16:02.297Z,18.60
2022-08-19T04:18:36.266Z,18.60
2022-08-19T04:21:06.228Z,18.50
2022-08-19T04:23:43.071Z,18.50
2022-08-19T04:26:16.770Z,18.40
2022-08-19T04:28:46.727Z,18.50
2022-08-19T04:31:20.369Z,18.40
2022-08-19T04:33:50.269Z,18.40
2022-08-19T04:36:21.503Z,18.40
2022-08-19T04:38:50.204Z,18.40
2022-08-19T04:41:44.502Z,18.40
2022-08-19T04:44:21.640Z,18.40
2022-08-19T04:46:57.187Z,18.50
2022-08-19T04:49:29.230Z,18.50
2022-08-19T04:51:58.673Z,18.50
2022-08-19T04:54:38.420Z,18.50
2022-08-19T04:57:11.249Z,18.50
2022-08-19T04:59:43.705Z,18.50
2022-08-19T05:02:15.759Z,18.50
2022-08-19T05:04:52.569Z,18.50
2022-08-19T05:07:26.554Z,18.60
2022-08-19T05:09:58.605Z,18.50
2022-08-19T05:12:31.865Z,18.60
2022-08-19T05:15:05.483Z,18.60
2022-08-19T05:17:38.989Z,18.60
2022-08-19T05:20:35.747Z,18.60
2022-08-19T05:23:12.732Z,18.50
2022-08-19T05:26:13.476Z,18.60
2022-08-19T05:28:43.811Z,18.70
2022-08-19T05:31:12.260Z,18.70
2022-08-19T05:33:46.494Z,18.70
2022-08-19T05:36:19.076Z,18.70
2022-08-19T05:38:51.655Z,18.80
2022-08-19T05:41:22.238Z,18.80
2022-08-19T05:43:53.192Z,18.80
2022-08-19T05:46:30.702Z,18.80
2022-08-19T05:49:07.914Z,18.80
2022-08-19T05:51:43.174Z,18.80
2022-08-19T05:54:15.584Z,18.90
2022-08-19T05:56:45.564Z,18.90
2022-08-19T05:59:16.435Z,18.90
2022-08-19T06:01:51.607Z,18.80
2022-08-19T06:04:26.658Z,18.90
2022-08-19T06:06:59.349Z,18.90
2022-08-19T06:09:32.216Z,18.90
2022-08-19T06:12:06.233Z,19.00
2022-08-19T06:14:41.945Z,19.10
2022-08-19T06:17:10.978Z,19.10
2022-08-19T06:19:42.348Z,19.10
2022-08-19T06:24:57.644Z,19.30
2022-08-19T06:27:26.337Z,19.30
2022-08-19T06:29:59.389Z,19.30
2022-08-19T06:32:30.928Z,19.40
2022-08-19T06:35:18.151Z,19.40
2022-08-19T06:37:46.602Z,19.40
2022-08-19T06:40:15.095Z,19.40
2022-08-19T06:42:54.265Z,19.50
2022-08-19T06:45:34.402Z,19.40
2022-08-19T06:48:06.046Z,19.40
2022-08-19T06:50:39.429Z,19.50
2022-08-19T06:53:09.592Z,19.40
2022-08-19T06:55:47.413Z,19.40
2022-08-19T06:58:18.186Z,19.50
2022-08-19T07:00:46.477Z,19.50
2022-08-19T07:03:16.722Z,19.70
2022-08-19T07:05:56.159Z,19.80
2022-08-19T07:08:29.287Z,19.80
2022-08-19T07:11:00.629Z,19.80
2022-08-19T07:13:36.570Z,19.90
2022-08-19T07:16:10.749Z,19.90
2022-08-19T07:18:41.996Z,20.00
2022-08-19T07:21:17.991Z,20.00
2022-08-19T07:23:51.701Z,20.10
2022-08-19T07:26:27.713Z,20.10
2022-08-19T07:29:00.792Z,20.20
2022-08-19T07:31:34.395Z,20.20
2022-08-19T07:34:15.906Z,20.20
2022-08-19T07:36:50.990Z,20.20
2022-08-19T07:39:25.869Z,20.30
2022-08-19T07:41:58.789Z,20.30
2022-08-19T07:44:32.972Z,20.20
2022-08-19T07:49:47.525Z,20.10
2022-08-19T07:52:21.721Z,20.10
2022-08-19T07:54:52.184Z,20.20
2022-08-19T07:57:21.016Z,20.30
2022-08-19T07:59:51.803Z,20.50
2022-08-19T08:02:27.363Z,20.70
2022-08-19T08:05:16.155Z,20.60
2022-08-19T08:08:06.987Z,20.50
2022-08-19T08:10:42.422Z,20.60
2022-08-19T08:13:19.988Z,20.70
2022-08-19T08:15:53.596Z,20.70
2022-08-19T08:18:50.713Z,20.70
2022-08-19T08:21:21.891Z,20.70
2022-08-19T08:23:57.178Z,20.70
2022-08-19T08:26:28.066Z,20.60
2022-08-19T08:28:58.722Z,20.60
2022-08-19T08:31:30.956Z,20.60
2022-08-19T08:34:11.467Z,20.60
2022-08-19T08:36:43.621Z,20.60
2022-08-19T08:39:16.187Z,20.70
2022-08-19T08:41:53.602Z,20.70
2022-08-19T08:44:29.005Z,20.70
2022-08-19T08:47:03.351Z,20.60
2022-08-19T08:49:45.325Z,20.70
2022-08-19T08:52:22.555Z,20.80
2022-08-19T08:55:10.171Z,20.80
2022-08-19T08:57:47.828Z,20.90
2022-08-19T09:00:20.893Z,20.90
2022-08-19T09:02:51.927Z,20.90
2022-08-19T09:05:26.153Z,20.90
2022-08-19T09:08:07.325Z,21.00
2022-08-19T09:10:44.234Z,21.10
2022-08-19T09:13:28.962Z,21.10
2022-08-19T09:16:04.425Z,21.20
2022-08-19T09:18:47.687Z,21.20
2022-08-19T09:21:25.732Z,21.20
2022-08-19T09:24:05.227Z,21.40
2022-08-19T09:26:48.651Z,21.60
2022-08-19T09:29:23.007Z,21.70
2022-08-19T09:32:26.709Z,21.70
2022-08-19T09:35:03.995Z,21.80
2022-08-19T09:37:37.734Z,21.80
2022-08-19T09:40:12.078Z,21.80
2022-08-19T09:42:50.072Z,21.80
2022-08-19T09:45:23.193Z,21.90
2022-08-19T09:47:55.256Z,22.10
2022-08-19T09:50:51.966Z,22.10
2022-08-19T09:53:25.465Z,22.10
2022-08-19T09:55:56.465Z,22.20
2022-08-19T09:58:32.403Z,22.30
2022-08-19T10:01:09.740Z,22.70
2022-08-19T10:03:39.254Z,23.00
2022-08-19T10:06:19.139Z,23.30
2022-08-19T10:09:09.150Z,23.30
2022-08-19T10:11:39.679Z,23.30
2022-08-19T10:14:16.869Z,23.20
2022-08-19T10:16:45.475Z,23.10
2022-08-19T10:19:14.254Z,23.00
2022-08-19T10:21:43.775Z,23.00
2022-08-19T10:24:12.580Z,22.90
2022-08-19T10:26:46.176Z,22.80
2022-08-19T10:29:31.990Z,23.00
2022-08-19T10:32:03.129Z,23.10
2022-08-19T10:34:32.666Z,23.20
2022-08-19T10:37:02.838Z,23.20
2022-08-19T10:39:41.020Z,23.20
2022-08-19T10:42:14.155Z,23.00
2022-08-19T10:44:44.453Z,23.20
2022-08-19T10:47:24.661Z,23.10
2022-08-19T10:50:13.379Z,22.80
2022-08-19T10:52:49.910Z,23.20
2022-08-19T10:55:38.737Z,23.30
2022-08-19T10:58:12.273Z,23.70
2022-08-19T11:00:43.308Z,23.80
2022-08-19T11:03:11.777Z,23.90
2022-08-19T11:05:41.639Z,23.80
2022-08-19T11:08:22.982Z,23.50
2022-08-19T11:10:54.685Z,23.70
2022-08-19T11:13:33.435Z,23.80
2022-08-19T11:16:19.911Z,23.90
2022-08-19T11:18:59.849Z,24.20
2022-08-19T11:21:36.339Z,24.20
2022-08-19T11:24:11.550Z,24.50
2022-08-19T11:26:48.651Z,24.40
2022-08-19T11:29:17.742Z,24.00
2022-08-19T11:31:49.653Z,24.10
2022-08-19T11:34:21.685Z,24.50
2022-08-19T11:36:51.493Z,24.80
2022-08-19T11:39:22.426Z,24.80
2022-08-19T11:41:51.108Z,24.90
2022-08-19T11:44:19.448Z,24.80
2022-08-19T11:46:49.423Z,24.70
2022-08-19T11:49:19.959Z,24.30
2022-08-19T11:51:51.175Z,24.20
2022-08-19T11:54:19.561Z,24.10
2022-08-19T11:56:49.998Z,24.20
2022-08-19T11:59:18.213Z,24.20
2022-08-19T12:01:46.500Z,24.20
2022-08-19T12:04:16.095Z,24.10
2022-08-19T12:06:46.857Z,24.10
2022-08-19T12:09:16.491Z,24.20
2022-08-19T12:11:44.693Z,24.60
2022-08-19T12:14:16.920Z,24.80
2022-08-19T12:16:51.074Z,25.10
2022-08-19T12:19:22.726Z,25.20
2022-08-19T12:21:52.103Z,25.30
2022-08-19T12:24:24.141Z,25.00
2022-08-19T12:26:53.957Z,25.30
2022-08-19T12:29:23.954Z,25.30
2022-08-19T12:31:52.907Z,25.70
2022-08-19T12:34:22.735Z,25.60
2022-08-19T12:36:51.281Z,25.50
2022-08-19T12:39:19.668Z,25.10
2022-08-19T12:41:51.659Z,25.10
2022-08-19T12:44:31.864Z,25.10
2022-08-19T12:47:01.148Z,25.30
2022-08-19T12:49:54.353Z,25.70
2022-08-19T12:52:23.253Z,26.50
2022-08-19T12:54:54.149Z,26.90
2022-08-19T12:57:31.556Z,27.00
2022-08-19T13:00:00.767Z,27.00
2022-08-19T13:02:29.367Z,27.10
2022-08-19T13:04:59.610Z,27.10
2022-08-19T13:07:27.931Z,27.30
2022-08-19T13:09:56.061Z,27.30
2022-08-19T13:12:27.604Z,27.20
2022-08-19T13:14:55.873Z,26.60
2022-08-19T13:17:24.065Z,26.50
2022-08-19T13:19:52.524Z,26.60
2022-08-19T13:22:22.196Z,26.70
2022-08-19T13:24:50.435Z,26.90
2022-08-19T13:27:18.675Z,27.10
2022-08-19T13:30:04.468Z,27.40
2022-08-19T13:32:50.220Z,27.30
2022-08-19T13:35:19.353Z,27.70
2022-08-19T13:37:48.866Z,27.70
2022-08-19T13:40:20.159Z,27.70
2022-08-19T13:42:50.974Z,27.50
2022-08-19T13:45:21.499Z,27.40
2022-08-19T13:47:52.076Z,27.50
2022-08-19T13:50:26.569Z,27.00
2022-08-19T13:52:57.091Z,27.20
2022-08-19T13:55:26.050Z,27.60
2022-08-19T13:57:55.547Z,27.90
2022-08-19T14:00:27.542Z,28.10
2022-08-19T14:02:58.466Z,28.10
2022-08-19T14:05:29.287Z,28.10
2022-08-19T14:08:00.310Z,28.40
2022-08-19T14:10:31.854Z,29.00
2022-08-19T14:13:02.425Z,29.10
2022-08-19T14:15:31.769Z,29.20
2022-08-19T14:18:00.341Z,28.80
2022-08-19T14:20:29.056Z,29.30
2022-08-19T14:22:58.807Z,28.80
2022-08-19T14:25:29.366Z,28.40
2022-08-19T14:27:58.733Z,28.80
2022-08-19T14:30:30.095Z,28.90
2022-08-19T14:33:02.994Z,29.20
2022-08-19T14:35:33.574Z,28.50
2022-08-19T14:38:03.817Z,28.00
2022-08-19T14:40:32.762Z,27.40
2022-08-19T14:43:05.213Z,27.10
2022-08-19T14:45:36.594Z,27.10
2022-08-19T14:48:12.404Z,27.00
2022-08-19T14:50:48.176Z,26.80
2022-08-19T14:53:18.775Z,26.60
2022-08-19T14:55:48.039Z,26.40
2022-08-19T14:58:29.783Z,26.10
2022-08-19T15:01:00.547Z,25.80
2022-08-19T15:03:29.396Z,25.80
2022-08-19T15:05:58.593Z,25.70
2022-08-19T15:08:29.843Z,25.40
2022-08-19T15:10:59.167Z,25.30
2022-08-19T15:13:34.305Z,25.20
2022-08-19T15:16:03.079Z,25.00
2022-08-19T15:18:31.331Z,24.90
2022-08-19T15:20:59.989Z,24.90
2022-08-19T15:23:29.787Z,24.80
2022-08-19T15:25:58.212Z,24.60
2022-08-19T15:28:27.766Z,24.50
2022-08-19T15:30:56.041Z,24.60
2022-08-19T15:33:24.268Z,24.40
2022-08-19T15:35:52.666Z,24.40
2022-08-19T15:38:22.151Z,24.60
2022-08-19T15:41:26.053Z,24.70
2022-08-19T15:43:59.590Z,24.60
2022-08-19T15:46:34.995Z,24.50
2022-08-19T15:49:12.053Z,24.50
2022-08-19T15:51:46.612Z,24.30
2022-08-19T15:54:19.172Z,24.50
2022-08-19T15:57:09.196Z,24.50
2022-08-19T16:00:03.399Z,24.60
2022-08-19T16:02:53.467Z,24.70
2022-08-19T16:05:49.510Z,24.70
2022-08-19T16:08:21.400Z,24.60
2022-08-19T16:10:53.069Z,24.80
2022-08-19T16:13:48.069Z,24.80
2022-08-19T16:19:02.736Z,24.70
2022-08-19T16:21:47.239Z,24.80
2022-08-19T16:24:18.718Z,24.80
2022-08-19T16:26:53.017Z,24.90
2022-08-19T16:29:39.361Z,24.80
2022-08-19T16:32:12.871Z,24.70
2022-08-19T16:34:51.067Z,24.70
2022-08-19T16:37:33.942Z,24.70
2022-08-19T16:40:06.073Z,24.70
2022-08-19T16:42:43.362Z,24.70
2022-08-19T16:45:31.940Z,24.80
2022-08-19T16:48:09.574Z,24.70
2022-08-19T16:50:49.480Z,24.80
2022-08-19T16:53:23.995Z,24.80
2022-08-19T16:55:59.927Z,24.80
2022-08-19T16:58:36.504Z,24.90
2022-08-19T17:01:25.394Z,25.10
2022-08-19T17:03:56.214Z,25.40
2022-08-19T17:06:29.818Z,25.40
2022-08-19T17:09:03.032Z,25.30
2022-08-19T17:11:35.863Z,25.30
2022-08-19T17:14:08.561Z,25.40
2022-08-19T17:16:54.535Z,25.40
2022-08-19T17:19:24.761Z,25.30
2022-08-19T17:22:09.930Z,25.20
2022-08-19T17:24:48.787Z,25.10
2022-08-19T17:27:20.885Z,25.10
2022-08-19T17:29:51.455Z,25.00
2022-08-19T17:32:30.043Z,25.00
2022-08-19T17:35:00.506Z,25.00
2022-08-19T17:37:34.265Z,25.00
2022-08-19T17:40:11.589Z,25.00
2022-08-19T17:42:56.887Z,24.80
2022-08-19T17:45:37.529Z,24.70
2022-08-19T17:48:24.442Z,24.60
2022-08-19T17:51:04.103Z,24.40
2022-08-19T17:53:36.664Z,24.30
2022-08-19T17:56:06.612Z,24.30
2022-08-19T17:58:45.099Z,24.20
2022-08-19T18:01:27.003Z,24.20
2022-08-19T18:04:04.917Z,24.00
2022-08-19T18:09:24.052Z,24.00
2022-08-19T18:12:05.088Z,24.00
2022-08-19T18:14:47.740Z,23.90
2022-08-19T18:17:23.561Z,23.80
2022-08-19T18:19:55.338Z,23.80
2022-08-19T18:25:14.922Z,23.70
2022-08-19T18:27:59.919Z,23.50
2022-08-19T18:30:36.447Z,23.50
2022-08-19T18:33:16.290Z,23.30
2022-08-19T18:36:03.923Z,23.20
2022-08-19T18:38:56.460Z,23.10
2022-08-19T18:41:43.449Z,23.00
2022-08-19T18:44:29.207Z,22.80
2022-08-19T18:47:31.059Z,22.70
2022-08-19T18:50:04.749Z,22.50
2022-08-19T18:52:40.820Z,22.30
2022-08-19T18:55:26.650Z,22.30
2022-08-19T18:57:57.455Z,22.30
2022-08-19T19:00:26.809Z,22.20
2022-08-19T19:02:56.256Z,22.00
2022-08-19T19:05:24.619Z,21.90
2022-08-19T19:08:01.978Z,21.80
2022-08-19T19:10:33.003Z,21.70
2022-08-19T19:13:02.360Z,21.60
2022-08-19T19:15:30.841Z,21.50
2022-08-19T19:18:14.960Z,21.40
2022-08-19T19:20:52.865Z,21.30
2022-08-19T19:23:32.377Z,21.30
2022-08-19T19:26:09.092Z,21.20
2022-08-19T19:28:45.642Z,21.00
2022-08-19T19:31:19.674Z,20.90
2022-08-19T19:33:49.888Z,20.80
2022-08-19T19:36:24.585Z,20.50
2022-08-19T19:38:58.961Z,20.50
2022-08-19T19:41:35.847Z,20.40
2022-08-19T19:44:30.884Z,20.30
2022-08-19T19:47:04.570Z,20.30
2022-08-19T19:49:52.549Z,20.30
2022-08-19T19:52:34.489Z,20.20
2022-08-19T19:55:21.687Z,20.20
2022-08-19T19:57:53.690Z,20.10
2022-08-19T20:00:33.089Z,20.00
2022-08-19T20:03:01.849Z,19.90
2022-08-19T20:05:32.274Z,19.80
2022-08-19T20:08:22.984Z,19.80
2022-08-19T20:13:43.766Z,19.80
2022-08-19T20:16:14.567Z,19.80
2022-08-19T20:18:49.846Z,19.70
2022-08-19T20:21:24.120Z,19.60
2022-08-19T20:24:09.301Z,19.60
2022-08-19T20:26:48.763Z,19.60
2022-08-19T20:29:38.274Z,19.60
2022-08-19T20:32:17.425Z,19.60
2022-08-19T20:34:49.629Z,19.70
2022-08-19T20:37:21.396Z,19.60
2022-08-19T20:39:56.147Z,19.60
2022-08-19T20:42:26.871Z,19.60
2022-08-19T20:44:56.938Z,19.60
2022-08-19T20:47:32.992Z,19.60
2022-08-19T20:50:06.133Z,19.50
2022-08-19T20:52:39.977Z,19.60
2022-08-19T20:55:12.861Z,19.50
2022-08-19T20:57:47.553Z,19.50
2022-08-19T21:00:24.978Z,19.50
2022-08-19T21:02:54.760Z,19.50
2022-08-19T21:08:12.553Z,19.50
2022-08-19T21:10:51.026Z,19.50
2022-08-19T21:13:35.993Z,19.60
2022-08-19T21:16:09.122Z,19.60
2022-08-19T21:18:45.187Z,19.60
2022-08-19T21:21:24.595Z,19.70
2022-08-19T21:26:41.970Z,19.60
2022-08-19T21:29:25.870Z,19.50
2022-08-19T21:31:58.010Z,19.40
2022-08-19T21:34:29.882Z,19.40
2022-08-19T21:36:58.120Z,19.50
2022-08-19T21:39:35.714Z,19.40
2022-08-19T21:42:06.297Z,19.40
2022-08-19T21:44:40.843Z,19.40
2022-08-19T21:47:27.180Z,19.40
2022-08-19T21:49:59.996Z,19.40
2022-08-19T21:52:32.205Z,19.30
2022-08-19T21:55:01.432Z,19.30
2022-08-19T21:57:37.212Z,19.30
2022-08-19T22:00:32.953Z,19.30
2022-08-19T22:03:07.737Z,19.20
2022-08-19T22:05:36.567Z,19.20
2022-08-19T22:08:09.851Z,19.20
2022-08-19T22:10:40.317Z,19.20
2022-08-19T22:13:17.644Z,19.20
2022-08-19T22:15:55.353Z,19.20
2022-08-19T22:18:44.494Z,19.10
2022-08-19T22:21:13.250Z,19.00
2022-08-19T22:23:49.467Z,19.00
2022-08-19T22:26:26.801Z,19.00
2022-08-19T22:29:04.953Z,18.80
2022-08-19T22:31:42.259Z,18.80
2022-08-19T22:34:13.480Z,18.80
2022-08-19T22:36:44.093Z,18.80
2022-08-19T22:39:15.900Z,18.70
2022-08-19T22:41:51.920Z,18.60
2022-08-19T22:44:23.772Z,18.60
2022-08-19T22:46:55.543Z,18.40
2022-08-19T22:49:26.493Z,18.50
2022-08-19T22:52:12.148Z,18.40
2022-08-19T22:54:40.632Z,18.40
2022-08-19T22:57:11.170Z,18.40
2022-08-19T22:59:39.685Z,18.40
2022-08-19T23:02:10.360Z,18.50
2022-08-19T23:04:39.022Z,18.50
2022-08-19T23:07:07.656Z,18.50
2022-08-19T23:09:35.812Z,18.40
2022-08-19T23:12:05.641Z,18.40
2022-08-19T23:14:34.380Z,18.40
2022-08-19T23:17:02.605Z,18.30
2022-08-19T23:19:32.550Z,18.30
2022-08-19T23:22:01.510Z,18.30
2022-08-19T23:24:29.759Z,18.20
2022-08-19T23:27:15.602Z,18.20
2022-08-19T23:30:01.254Z,18.10
2022-08-19T23:32:29.502Z,18.10
2022-08-19T23:34:59.620Z,18.00
2022-08-19T23:37:28.011Z,17.90
2022-08-19T23:39:56.309Z,18.00
2022-08-19T23:42:26.081Z,17.90
2022-08-19T23:44:54.297Z,17.90
2022-08-19T23:47:23.748Z,17.90
2022-08-19T23:49:51.931Z,17.90
2022-08-19T23:52:21.677Z,17.80
2022-08-19T23:54:49.878Z,17.80
2022-08-19T23:57:18.149Z,17.80
2022-08-19T23:59:46.475Z,17.80
